createdAt,value
2018-07-08T00:00:44.467Z,74.57
2018-07-08T00:01:44.468Z,74.48
2018-07-08T00:02:44.471Z,74.66
2018-07-08T00:03:44.470Z,74.48
2018-07-08T00:04:44.468Z,73.71
2018-07-08T00:05:44.470Z,74.09
2018-07-08T00:06:44.472Z,74.57
2018-07-08T00:07:44.471Z,74.57
2018-07-08T00:08:44.473Z,74.44
2018-07-08T00:09:44.470Z,73.71
2018-07-08T00:10:44.473Z,73.90
2018-07-08T00:11:44.473Z,73.96
2018-07-08T00:12:44.473Z,74.05
2018-07-08T00:13:44.471Z,73.86
2018-07-08T00:14:44.476Z,73.96
2018-07-08T00:15:44.473Z,74.05
2018-07-08T00:16:44.471Z,74.15
2018-07-08T00:17:44.474Z,73.77
2018-07-08T00:18:44.473Z,73.96
2018-07-08T00:19:44.475Z,73.86
2018-07-08T00:20:44.472Z,74.05
2018-07-08T00:21:44.473Z,74.05
2018-07-08T00:22:44.473Z,73.96
2018-07-08T00:23:44.476Z,74.24
2018-07-08T00:24:44.473Z,73.86
2018-07-08T00:25:44.473Z,74.15
2018-07-08T00:26:44.475Z,73.77
2018-07-08T00:27:44.479Z,73.77
2018-07-08T00:28:44.473Z,73.86
2018-07-08T00:29:44.474Z,73.48
2018-07-08T00:30:44.474Z,73.67
2018-07-08T00:31:44.474Z,74.05
2018-07-08T00:32:44.472Z,73.86
2018-07-08T00:33:44.474Z,73.77
2018-07-08T00:34:44.475Z,73.77
2018-07-08T00:35:44.474Z,73.48
2018-07-08T00:36:44.472Z,73.77
2018-07-08T00:37:44.474Z,73.48
2018-07-08T00:38:44.472Z,73.29
2018-07-08T00:39:44.499Z,73.48
2018-07-08T00:40:44.477Z,73.00
2018-07-08T00:41:44.472Z,73.48
2018-07-08T00:42:44.473Z,73.19
2018-07-08T00:43:44.472Z,73.29
2018-07-08T00:44:44.472Z,73.48
2018-07-08T00:45:44.471Z,73.48
2018-07-08T00:46:44.473Z,72.91
2018-07-08T00:47:44.474Z,73.19
2018-07-08T00:48:44.472Z,73.29
2018-07-08T00:49:44.471Z,73.58
2018-07-08T00:50:44.473Z,72.81
2018-07-08T00:51:44.471Z,72.72
2018-07-08T00:52:44.471Z,73.16
2018-07-08T00:53:44.471Z,73.29
2018-07-08T00:54:44.470Z,73.07
2018-07-08T00:55:44.475Z,72.53
2018-07-08T00:56:44.471Z,72.53
2018-07-08T00:57:44.469Z,72.72
2018-07-08T00:58:44.470Z,72.33
2018-07-08T00:59:44.468Z,72.62
2018-07-08T01:00:44.470Z,72.62
2018-07-08T01:01:44.533Z,72.72
2018-07-08T01:02:44.468Z,72.49
2018-07-08T01:03:44.468Z,72.62
2018-07-08T01:04:44.471Z,72.49
2018-07-08T01:05:44.467Z,72.53
2018-07-08T01:06:44.468Z,72.24
2018-07-08T01:07:44.467Z,72.53
2018-07-08T01:08:44.471Z,72.62
2018-07-08T01:09:44.466Z,72.05
2018-07-08T01:10:44.469Z,71.95
2018-07-08T01:11:44.466Z,71.95
2018-07-08T01:12:44.467Z,71.67
2018-07-08T01:13:44.463Z,71.76
2018-07-08T01:14:44.464Z,71.47
2018-07-08T01:15:44.463Z,71.82
2018-07-08T01:16:44.462Z,71.25
2018-07-08T01:17:44.463Z,72.11
2018-07-08T01:18:44.462Z,71.63
2018-07-08T01:19:44.463Z,71.72
2018-07-08T01:20:44.461Z,71.15
2018-07-08T01:21:44.461Z,71.34
2018-07-08T01:22:44.461Z,71.63
2018-07-08T01:23:44.460Z,71.34
2018-07-08T01:24:44.459Z,71.25
2018-07-08T01:25:44.459Z,71.44
2018-07-08T01:26:44.458Z,70.87
2018-07-08T01:27:44.463Z,71.06
2018-07-08T01:28:44.458Z,71.09
2018-07-08T01:29:44.457Z,70.96
2018-07-08T01:30:44.459Z,71.34
2018-07-08T01:31:44.457Z,70.87
2018-07-08T01:32:44.455Z,71.09
2018-07-08T01:33:44.455Z,70.71
2018-07-08T01:34:44.455Z,71.25
2018-07-08T01:35:44.454Z,70.48
2018-07-08T01:36:44.453Z,71.28
2018-07-08T01:37:44.452Z,70.29
2018-07-08T01:38:44.453Z,70.39
2018-07-08T01:39:44.455Z,70.48
2018-07-08T01:40:44.451Z,71.06
2018-07-08T01:41:44.451Z,70.29
2018-07-08T01:42:44.450Z,70.39
2018-07-08T01:43:44.450Z,70.29
2018-07-08T01:44:44.449Z,70.67
2018-07-08T01:45:44.449Z,70.48
2018-07-08T01:46:44.449Z,70.29
2018-07-08T01:47:44.448Z,70.48
2018-07-08T01:48:44.446Z,70.96
2018-07-08T01:49:44.445Z,70.58
2018-07-08T01:50:44.445Z,70.58
2018-07-08T01:51:44.444Z,70.58
2018-07-08T01:52:44.443Z,70.58
2018-07-08T01:53:44.443Z,70.20
2018-07-08T01:54:44.442Z,70.01
2018-07-08T01:55:44.442Z,70.01
2018-07-08T01:56:44.440Z,69.72
2018-07-08T01:57:44.438Z,69.72
2018-07-08T01:58:44.439Z,70.29
2018-07-08T01:59:44.439Z,70.01
2018-07-08T02:00:44.436Z,69.91
2018-07-08T02:01:44.437Z,69.82
2018-07-08T02:02:44.436Z,69.91
2018-07-08T02:03:44.437Z,70.20
2018-07-08T02:04:44.434Z,69.43
2018-07-08T02:05:44.434Z,70.10
2018-07-08T02:06:44.433Z,69.91
2018-07-08T02:07:44.434Z,70.01
2018-07-08T02:08:44.431Z,69.62
2018-07-08T02:09:44.431Z,69.53
2018-07-08T02:10:44.431Z,69.62
2018-07-08T02:11:44.429Z,69.43
2018-07-08T02:12:44.428Z,69.68
2018-07-08T02:13:44.428Z,69.53
2018-07-08T02:14:44.427Z,69.43
2018-07-08T02:15:44.428Z,69.49
2018-07-08T02:16:44.423Z,69.34
2018-07-08T02:17:44.423Z,69.87
2018-07-08T02:18:44.426Z,69.53
2018-07-08T02:19:44.422Z,69.49
2018-07-08T02:20:44.421Z,69.68
2018-07-08T02:21:44.422Z,69.15
2018-07-08T02:22:44.421Z,68.82
2018-07-08T02:23:44.419Z,69.24
2018-07-08T02:24:44.417Z,69.11
2018-07-08T02:25:44.417Z,69.43
2018-07-08T02:26:44.417Z,69.11
2018-07-08T02:27:44.415Z,68.82
2018-07-08T02:28:44.413Z,68.96
2018-07-08T02:29:44.415Z,69.11
2018-07-08T02:30:44.414Z,69.21
2018-07-08T02:31:44.412Z,69.11
2018-07-08T02:32:44.410Z,69.11
2018-07-08T02:33:44.411Z,69.11
2018-07-08T02:34:44.413Z,69.31
2018-07-08T02:35:44.409Z,69.43
2018-07-08T02:36:44.406Z,69.11
2018-07-08T02:37:44.406Z,69.11
2018-07-08T02:38:44.405Z,68.29
2018-07-08T02:39:44.405Z,68.82
2018-07-08T02:40:44.403Z,68.44
2018-07-08T02:41:44.401Z,69.11
2018-07-08T02:42:44.401Z,68.44
2018-07-08T02:43:44.401Z,69.40
2018-07-08T02:44:44.399Z,68.67
2018-07-08T02:45:44.399Z,68.44
2018-07-08T02:46:44.398Z,69.21
2018-07-08T02:47:44.396Z,68.63
2018-07-08T02:48:44.400Z,68.44
2018-07-08T02:49:44.393Z,68.26
2018-07-08T02:50:44.392Z,68.73
2018-07-08T02:51:44.394Z,68.63
2018-07-08T02:52:44.391Z,68.19
2018-07-08T02:53:44.390Z,68.26
2018-07-08T02:54:44.389Z,68.54
2018-07-08T02:55:44.390Z,68.54
2018-07-08T02:56:44.386Z,68.73
2018-07-08T02:57:44.386Z,67.77
2018-07-08T02:58:44.386Z,68.54
2018-07-08T02:59:44.385Z,68.06
2018-07-08T03:00:44.383Z,68.26
2018-07-08T03:01:44.381Z,68.06
2018-07-08T03:02:44.381Z,68.35
2018-07-08T03:03:44.381Z,68.73
2018-07-08T03:04:44.378Z,68.35
2018-07-08T03:05:44.377Z,68.44
2018-07-08T03:06:44.376Z,68.26
2018-07-08T03:07:44.376Z,67.97
2018-07-08T03:08:44.376Z,68.22
2018-07-08T03:09:44.373Z,68.26
2018-07-08T03:10:44.372Z,68.06
2018-07-08T03:11:44.372Z,68.22
2018-07-08T03:12:44.370Z,68.44
2018-07-08T03:13:44.368Z,67.97
2018-07-08T03:14:44.367Z,67.77
2018-07-08T03:15:44.366Z,67.93
2018-07-08T03:16:44.365Z,67.97
2018-07-08T03:17:44.364Z,67.97
2018-07-08T03:18:44.365Z,68.63
2018-07-08T03:19:44.362Z,67.97
2018-07-08T03:20:44.360Z,67.74
2018-07-08T03:21:44.360Z,67.77
2018-07-08T03:22:44.357Z,67.68
2018-07-08T03:23:44.357Z,67.77
2018-07-08T03:24:44.355Z,67.97
2018-07-08T03:25:44.356Z,67.97
2018-07-08T03:26:44.354Z,68.35
2018-07-08T03:27:44.354Z,67.97
2018-07-08T03:28:44.354Z,68.54
2018-07-08T03:29:44.350Z,68.16
2018-07-08T03:30:44.351Z,68.22
2018-07-08T03:31:44.350Z,68.03
2018-07-08T03:32:44.346Z,67.65
2018-07-08T03:33:44.344Z,67.83
2018-07-08T03:34:44.345Z,67.74
2018-07-08T03:35:44.342Z,67.65
2018-07-08T03:36:44.341Z,68.03
2018-07-08T03:37:44.344Z,67.93
2018-07-08T03:38:44.340Z,67.87
2018-07-08T03:39:44.339Z,68.41
2018-07-08T03:40:44.339Z,67.74
2018-07-08T03:41:44.334Z,67.46
2018-07-08T03:42:44.334Z,67.83
2018-07-08T03:43:44.335Z,68.03
2018-07-08T03:44:44.332Z,67.46
2018-07-08T03:45:44.334Z,67.40
2018-07-08T03:46:44.330Z,67.65
2018-07-08T03:47:44.329Z,68.03
2018-07-08T03:48:44.328Z,67.55
2018-07-08T03:49:44.327Z,67.36
2018-07-08T03:50:44.324Z,67.83
2018-07-08T03:51:44.323Z,67.27
2018-07-08T03:52:44.322Z,67.55
2018-07-08T03:53:44.321Z,67.17
2018-07-08T03:54:44.321Z,67.68
2018-07-08T03:55:44.322Z,67.46
2018-07-08T03:56:44.317Z,67.55
2018-07-08T03:57:44.316Z,67.55
2018-07-08T03:58:44.317Z,67.65
2018-07-08T03:59:44.315Z,66.98
2018-07-08T04:00:44.313Z,66.82
2018-07-08T04:01:44.312Z,66.98
2018-07-08T04:02:44.310Z,66.72
2018-07-08T04:03:44.309Z,67.46
2018-07-08T04:04:44.308Z,67.11
2018-07-08T04:05:44.310Z,67.65
2018-07-08T04:06:44.305Z,66.60
2018-07-08T04:07:44.306Z,66.88
2018-07-08T04:08:44.303Z,66.60
2018-07-08T04:09:44.302Z,66.78
2018-07-08T04:10:44.301Z,66.72
2018-07-08T04:11:44.301Z,66.82
2018-07-08T04:12:44.297Z,66.53
2018-07-08T04:13:44.298Z,66.69
2018-07-08T04:14:44.296Z,66.78
2018-07-08T04:15:44.295Z,66.82
2018-07-08T04:16:44.296Z,66.92
2018-07-08T04:17:44.292Z,66.92
2018-07-08T04:18:44.292Z,66.53
2018-07-08T04:19:44.291Z,66.44
2018-07-08T04:20:44.290Z,66.44
2018-07-08T04:21:44.288Z,66.63
2018-07-08T04:22:44.288Z,66.53
2018-07-08T04:23:44.289Z,67.01
2018-07-08T04:24:44.288Z,66.53
2018-07-08T04:25:44.284Z,66.12
2018-07-08T04:26:44.284Z,65.96
2018-07-08T04:27:44.282Z,66.25
2018-07-08T04:28:44.279Z,66.12
2018-07-08T04:29:44.280Z,66.06
2018-07-08T04:30:44.282Z,66.35
2018-07-08T04:31:44.278Z,66.06
2018-07-08T04:32:44.276Z,66.15
2018-07-08T04:33:44.274Z,66.15
2018-07-08T04:34:44.275Z,66.72
2018-07-08T04:35:44.280Z,66.15
2018-07-08T04:36:44.272Z,66.25
2018-07-08T04:37:44.273Z,66.63
2018-07-08T04:38:44.270Z,66.15
2018-07-08T04:39:44.272Z,66.15
2018-07-08T04:40:44.269Z,67.11
2018-07-08T04:41:44.265Z,66.25
2018-07-08T04:42:44.267Z,66.15
2018-07-08T04:43:44.265Z,66.53
2018-07-08T04:44:44.265Z,66.56
2018-07-08T04:45:44.261Z,66.63
2018-07-08T04:46:44.260Z,66.53
2018-07-08T04:47:44.296Z,66.44
2018-07-08T04:48:44.257Z,66.19
2018-07-08T04:49:44.257Z,66.66
2018-07-08T04:50:44.257Z,66.19
2018-07-08T04:51:44.255Z,66.47
2018-07-08T04:52:44.254Z,66.85
2018-07-08T04:53:44.256Z,65.90
2018-07-08T04:54:44.252Z,66.56
2018-07-08T04:55:44.254Z,66.09
2018-07-08T04:56:44.252Z,66.56
2018-07-08T04:57:44.249Z,66.47
2018-07-08T04:58:44.247Z,66.56
2018-07-08T04:59:44.248Z,66.56
2018-07-08T05:00:44.246Z,66.56
2018-07-08T05:01:44.245Z,66.28
2018-07-08T05:02:44.243Z,66.00
2018-07-08T05:03:44.244Z,66.56
2018-07-08T05:04:44.242Z,66.76
2018-07-08T05:05:44.242Z,66.09
2018-07-08T05:06:44.241Z,66.00
2018-07-08T05:07:44.240Z,66.00
2018-07-08T05:08:44.242Z,66.00
2018-07-08T05:09:44.237Z,66.00
2018-07-08T05:10:44.237Z,65.42
2018-07-08T05:11:44.237Z,66.19
2018-07-08T05:12:44.235Z,65.61
2018-07-08T05:13:44.233Z,66.09
2018-07-08T05:14:44.233Z,66.00
2018-07-08T05:15:44.232Z,66.13
2018-07-08T05:16:44.230Z,66.03
2018-07-08T05:17:44.231Z,66.22
2018-07-08T05:18:44.230Z,66.13
2018-07-08T05:19:44.232Z,66.03
2018-07-08T05:20:44.227Z,65.74
2018-07-08T05:21:44.226Z,66.03
2018-07-08T05:22:44.225Z,66.03
2018-07-08T05:23:44.227Z,67.11
2018-07-08T05:24:44.223Z,70.56
2018-07-08T05:25:44.225Z,73.28
2018-07-08T05:26:44.227Z,73.65
2018-07-08T05:27:44.228Z,74.44
2018-07-08T05:28:44.228Z,74.83
2018-07-08T05:29:44.271Z,72.72
2018-07-08T05:30:44.230Z,73.00
2018-07-08T05:31:44.237Z,74.06
2018-07-08T05:32:44.235Z,73.77
2018-07-08T05:33:44.238Z,74.77
2018-07-08T05:34:44.243Z,75.77
2018-07-08T05:35:44.262Z,76.48
2018-07-08T05:36:44.251Z,75.81
2018-07-08T05:37:44.256Z,75.62
2018-07-08T05:38:44.261Z,74.43
2018-07-08T05:39:44.267Z,73.62
2018-07-08T05:40:44.272Z,75.67
2018-07-08T05:41:44.278Z,75.04
2018-07-08T05:42:44.285Z,74.81
2018-07-08T05:43:44.290Z,73.72
2018-07-08T05:44:44.296Z,73.33
2018-07-08T05:45:44.301Z,73.04
2018-07-08T05:46:44.308Z,72.72
2018-07-08T05:47:44.313Z,72.24
2018-07-08T05:48:44.317Z,71.19
2018-07-08T05:49:44.323Z,70.96
2018-07-08T05:50:44.327Z,70.35
2018-07-08T05:51:44.333Z,69.68
2018-07-08T05:52:44.338Z,69.45
2018-07-08T05:53:44.343Z,69.01
2018-07-08T05:54:44.347Z,69.87
2018-07-08T05:55:44.353Z,69.93
2018-07-08T05:56:44.357Z,68.87
2018-07-08T05:57:44.361Z,68.68
2018-07-08T05:58:44.365Z,68.11
2018-07-08T05:59:44.370Z,68.17
2018-07-08T06:00:44.373Z,67.44
2018-07-08T06:01:44.378Z,69.83
2018-07-08T06:02:44.382Z,67.82
2018-07-08T06:03:44.384Z,68.11
2018-07-08T06:04:44.388Z,67.91
2018-07-08T06:05:44.392Z,69.07
2018-07-08T06:06:44.398Z,70.06
2018-07-08T06:07:44.400Z,69.26
2018-07-08T06:08:44.403Z,69.48
2018-07-08T06:09:44.407Z,70.03
2018-07-08T06:10:44.410Z,68.87
2018-07-08T06:11:44.417Z,69.17
2018-07-08T06:12:44.417Z,68.33
2018-07-08T06:13:44.420Z,68.97
2018-07-08T06:14:44.425Z,68.49
2018-07-08T06:15:44.431Z,68.68
2018-07-08T06:16:44.439Z,68.59
2018-07-08T06:17:44.435Z,69.20
2018-07-08T06:18:44.438Z,68.91
2018-07-08T06:19:44.442Z,69.81
2018-07-08T06:20:44.444Z,70.19
2018-07-08T06:21:44.449Z,70.23
2018-07-08T06:22:44.452Z,71.37
2018-07-08T06:23:44.455Z,71.95
2018-07-08T06:24:44.458Z,72.24
2018-07-08T06:25:44.462Z,71.66
2018-07-08T06:26:44.466Z,71.66
2018-07-08T06:27:44.469Z,72.14
2018-07-08T06:28:44.473Z,72.14
2018-07-08T06:29:44.477Z,71.95
2018-07-08T06:30:44.480Z,70.51
2018-07-08T06:31:44.538Z,70.23
2018-07-08T06:32:44.488Z,71.37
2018-07-08T06:33:44.490Z,72.37
2018-07-08T06:34:44.495Z,72.85
2018-07-08T06:35:44.499Z,72.56
2018-07-08T06:36:44.502Z,73.14
2018-07-08T06:37:44.506Z,73.43
2018-07-08T06:38:44.510Z,72.75
2018-07-08T06:39:44.515Z,72.56
2018-07-08T06:40:44.521Z,73.52
2018-07-08T06:41:44.524Z,72.05
2018-07-08T06:42:44.527Z,71.76
2018-07-08T06:43:44.530Z,71.76
2018-07-08T06:44:44.535Z,72.53
2018-07-08T06:45:44.538Z,72.63
2018-07-08T06:46:44.541Z,72.05
2018-07-08T06:47:44.548Z,73.77
2018-07-08T06:48:44.548Z,71.76
2018-07-08T06:49:44.553Z,71.57
2018-07-08T06:50:44.557Z,72.81
2018-07-08T06:51:44.561Z,72.85
2018-07-08T06:52:44.565Z,72.63
2018-07-08T06:53:44.568Z,72.33
2018-07-08T06:54:44.572Z,73.72
2018-07-08T06:55:44.579Z,72.81
2018-07-08T06:56:44.580Z,73.39
2018-07-08T06:57:44.620Z,74.16
2018-07-08T06:58:44.589Z,73.68
2018-07-08T06:59:44.591Z,73.00
2018-07-08T07:00:44.595Z,73.20
2018-07-08T07:01:44.606Z,73.52
2018-07-08T07:02:44.602Z,72.66
2018-07-08T07:03:44.609Z,73.24
2018-07-08T07:04:44.611Z,73.39
2018-07-08T07:05:44.615Z,73.97
2018-07-08T07:06:44.674Z,76.17
2018-07-08T07:07:44.623Z,75.02
2018-07-08T07:08:44.626Z,73.58
2018-07-08T07:09:44.629Z,74.87
2018-07-08T07:10:44.634Z,76.02
2018-07-08T07:11:44.638Z,75.15
2018-07-08T07:12:44.639Z,74.77
2018-07-08T07:13:44.643Z,73.20
2018-07-08T07:14:44.646Z,73.58
2018-07-08T07:15:44.654Z,74.16
2018-07-08T07:16:44.655Z,74.35
2018-07-08T07:17:44.656Z,74.06
2018-07-08T07:18:44.662Z,74.64
2018-07-08T07:19:44.664Z,74.44
2018-07-08T07:20:44.668Z,75.31
2018-07-08T07:21:44.672Z,75.70
2018-07-08T07:22:44.674Z,74.83
2018-07-08T07:23:44.680Z,75.15
2018-07-08T07:24:44.681Z,77.94
2018-07-08T07:25:44.684Z,76.79
2018-07-08T07:26:44.688Z,76.59
2018-07-08T07:27:44.691Z,76.59
2018-07-08T07:28:44.694Z,75.92
2018-07-08T07:29:44.696Z,76.21
2018-07-08T07:30:44.700Z,74.96
2018-07-08T07:31:44.703Z,75.92
2018-07-08T07:32:44.705Z,76.12
2018-07-08T07:33:44.707Z,77.01
2018-07-08T07:34:44.712Z,76.06
2018-07-08T07:35:44.717Z,77.40
2018-07-08T07:36:44.718Z,78.36
2018-07-08T07:37:44.723Z,78.53
2018-07-08T07:38:44.727Z,76.07
2018-07-08T07:39:44.730Z,72.01
2018-07-08T07:40:44.736Z,67.55
2018-07-08T07:41:44.744Z,65.78
2018-07-08T07:42:44.748Z,64.95
2018-07-08T07:43:44.756Z,62.96
2018-07-08T07:44:44.762Z,61.48
2018-07-08T07:45:44.770Z,60.19
2018-07-08T07:46:44.780Z,58.22
2018-07-08T07:47:44.788Z,55.96
2018-07-08T07:48:44.794Z,54.32
2018-07-08T07:49:44.804Z,57.38
2018-07-08T07:50:44.814Z,57.48
2018-07-08T07:51:44.824Z,56.47
2018-07-08T07:52:44.834Z,55.31
2018-07-08T07:53:44.844Z,56.71
2018-07-08T07:54:44.855Z,57.29
2018-07-08T07:55:44.867Z,57.41
2018-07-08T07:56:44.878Z,55.70
2018-07-08T07:57:44.893Z,56.67
2018-07-08T07:58:44.908Z,55.34
2018-07-08T07:59:44.917Z,53.65
2018-07-08T08:00:44.928Z,52.61
2018-07-08T08:01:44.941Z,50.70
2018-07-08T08:02:44.954Z,53.17
2018-07-08T08:03:44.970Z,54.98
2018-07-08T08:04:44.981Z,55.56
2018-07-08T08:05:45.001Z,55.78
2018-07-08T08:06:45.012Z,54.85
2018-07-08T08:07:45.023Z,55.36
2018-07-08T08:08:45.037Z,55.98
2018-07-08T08:09:45.052Z,54.45
2018-07-08T08:10:45.129Z,54.25
2018-07-08T08:11:45.081Z,55.05
2018-07-08T08:12:45.094Z,54.05
2018-07-08T08:13:45.155Z,54.53
2018-07-08T08:14:45.124Z,53.50
2018-07-08T08:15:45.138Z,53.09
2018-07-08T08:16:45.154Z,51.76
2018-07-08T08:17:45.167Z,51.50
2018-07-08T08:18:45.182Z,50.02
2018-07-08T08:19:45.197Z,48.76
2018-07-08T08:20:45.211Z,46.34
2018-07-08T08:21:45.227Z,48.23
2018-07-08T08:22:45.241Z,48.32
2018-07-08T08:23:45.256Z,48.44
2018-07-08T08:24:45.269Z,46.53
2018-07-08T08:25:45.286Z,45.92
2018-07-08T08:26:45.366Z,46.22
2018-07-08T08:27:45.313Z,44.78
2018-07-08T08:28:45.328Z,44.10
2018-07-08T08:29:45.343Z,44.96
2018-07-08T08:30:45.358Z,45.03
2018-07-08T08:31:45.374Z,47.14
2018-07-08T08:32:45.427Z,46.77
2018-07-08T08:33:45.403Z,46.70
2018-07-08T08:34:45.417Z,46.07
2018-07-08T08:35:45.432Z,44.64
2018-07-08T08:36:45.448Z,44.27
2018-07-08T08:37:45.466Z,46.48
2018-07-08T08:38:45.478Z,46.53
2018-07-08T08:39:45.495Z,46.46
2018-07-08T08:40:45.508Z,46.48
2018-07-08T08:41:45.524Z,45.39
2018-07-08T08:42:45.538Z,43.30
2018-07-08T08:43:45.554Z,42.15
2018-07-08T08:44:45.567Z,43.57
2018-07-08T08:45:45.581Z,43.66
2018-07-08T08:46:45.598Z,42.35
2018-07-08T08:47:45.613Z,40.83
2018-07-08T08:48:45.630Z,40.15
2018-07-08T08:49:45.642Z,38.64
2018-07-08T08:50:45.660Z,39.78
2018-07-08T08:51:45.673Z,39.90
2018-07-08T08:52:45.687Z,39.20
2018-07-08T08:53:45.704Z,39.41
2018-07-08T08:54:45.717Z,39.61
2018-07-08T08:55:45.734Z,38.54
2018-07-08T08:56:45.751Z,38.52
2018-07-08T08:57:45.764Z,39.26
2018-07-08T08:58:45.780Z,39.36
2018-07-08T08:59:45.797Z,39.11
2018-07-08T09:00:45.810Z,39.04
2018-07-08T09:01:45.826Z,37.35
2018-07-08T09:02:45.843Z,36.02
2018-07-08T09:03:45.866Z,35.27
2018-07-08T09:04:45.873Z,36.15
2018-07-08T09:05:45.887Z,37.14
2018-07-08T09:06:45.901Z,37.14
2018-07-08T09:07:45.917Z,37.24
2018-07-08T09:08:45.932Z,37.56
2018-07-08T09:09:45.954Z,37.56
2018-07-08T09:10:46.003Z,37.35
2018-07-08T09:11:45.979Z,37.24
2018-07-08T09:12:45.994Z,38.37
2018-07-08T09:13:46.010Z,38.54
2018-07-08T09:14:46.026Z,40.09
2018-07-08T09:15:46.043Z,39.57
2018-07-08T09:16:46.057Z,37.64
2018-07-08T09:17:46.077Z,36.59
2018-07-08T09:18:46.089Z,36.94
2018-07-08T09:19:46.103Z,37.57
2018-07-08T09:20:46.119Z,37.49
2018-07-08T09:21:46.137Z,37.10
2018-07-08T09:22:46.151Z,36.93
2018-07-08T09:23:46.177Z,36.54
2018-07-08T09:24:46.181Z,36.54
2018-07-08T09:25:46.196Z,37.22
2018-07-08T09:26:46.211Z,37.39
2018-07-08T09:27:46.228Z,37.20
2018-07-08T09:28:46.244Z,36.83
2018-07-08T09:29:46.259Z,36.75
2018-07-08T09:30:46.275Z,36.38
2018-07-08T09:31:46.291Z,35.41
2018-07-08T09:32:46.303Z,35.61
2018-07-08T09:33:46.320Z,34.95
2018-07-08T09:34:46.336Z,35.89
2018-07-08T09:35:46.351Z,36.40
2018-07-08T09:36:46.366Z,36.71
2018-07-08T09:37:46.382Z,38.09
2018-07-08T09:38:46.459Z,36.87
2018-07-08T09:39:46.413Z,36.00
2018-07-08T09:40:46.429Z,35.63
2018-07-08T09:41:46.443Z,35.36
2018-07-08T09:42:46.460Z,34.81
2018-07-08T09:43:46.476Z,33.77
2018-07-08T09:44:46.492Z,33.25
2018-07-08T09:45:46.506Z,35.31
2018-07-08T09:46:46.520Z,36.79
2018-07-08T09:47:46.541Z,36.79
2018-07-08T09:48:46.555Z,36.96
2018-07-08T09:49:46.570Z,36.94
2018-07-08T09:50:46.585Z,37.04
2018-07-08T09:51:46.602Z,37.35
2018-07-08T09:52:46.615Z,37.39
2018-07-08T09:53:46.631Z,39.43
2018-07-08T09:54:46.647Z,38.54
2018-07-08T09:55:46.662Z,39.98
2018-07-08T09:56:46.677Z,39.72
2018-07-08T09:57:46.692Z,38.31
2018-07-08T09:58:46.709Z,37.08
2018-07-08T09:59:46.726Z,37.32
2018-07-08T10:00:46.739Z,38.85
2018-07-08T10:01:46.754Z,39.92
2018-07-08T10:02:46.769Z,38.91
2018-07-08T10:03:46.785Z,37.27
2018-07-08T10:04:46.809Z,36.77
2018-07-08T10:05:46.814Z,37.74
2018-07-08T10:06:46.831Z,38.32
2018-07-08T10:07:46.846Z,37.29
2018-07-08T10:08:46.937Z,36.43
2018-07-08T10:09:46.875Z,35.47
2018-07-08T10:10:46.922Z,35.18
2018-07-08T10:11:46.906Z,35.65
2018-07-08T10:12:46.920Z,35.77
2018-07-08T10:13:47.007Z,35.47
2018-07-08T10:14:46.951Z,35.55
2018-07-08T10:15:46.966Z,36.16
2018-07-08T10:16:46.980Z,36.98
2018-07-08T10:17:47.011Z,37.58
2018-07-08T10:18:47.012Z,37.68
2018-07-08T10:19:47.138Z,37.02
2018-07-08T10:20:47.041Z,37.12
2018-07-08T10:21:47.057Z,37.95
2018-07-08T10:22:47.072Z,39.96
2018-07-08T10:23:47.086Z,39.88
2018-07-08T10:24:47.100Z,38.85
2018-07-08T10:25:47.116Z,37.45
2018-07-08T10:26:47.132Z,36.10
2018-07-08T10:27:47.146Z,37.31
2018-07-08T10:28:47.160Z,39.39
2018-07-08T10:29:47.176Z,41.10
2018-07-08T10:30:47.192Z,42.30
2018-07-08T10:31:47.204Z,44.10
2018-07-08T10:32:47.220Z,45.48
2018-07-08T10:33:47.233Z,43.71
2018-07-08T10:34:47.248Z,41.24
2018-07-08T10:35:47.264Z,39.51
2018-07-08T10:36:47.279Z,39.04
2018-07-08T10:37:47.294Z,38.75
2018-07-08T10:38:47.307Z,39.16
2018-07-08T10:39:47.320Z,38.28
2018-07-08T10:40:47.339Z,39.92
2018-07-08T10:41:47.349Z,39.47
2018-07-08T10:42:47.367Z,39.31
2018-07-08T10:43:47.379Z,40.58
2018-07-08T10:44:47.393Z,40.73
2018-07-08T10:45:47.410Z,42.11
2018-07-08T10:46:47.421Z,41.85
2018-07-08T10:47:47.435Z,40.50
2018-07-08T10:48:47.450Z,42.76
2018-07-08T10:49:47.465Z,43.80
2018-07-08T10:50:47.479Z,43.73
2018-07-08T10:51:47.494Z,42.80
2018-07-08T10:52:47.508Z,42.14
2018-07-08T10:53:47.521Z,41.28
2018-07-08T10:54:47.536Z,40.73
2018-07-08T10:55:47.550Z,41.90
2018-07-08T10:56:47.562Z,42.31
2018-07-08T10:57:47.578Z,41.65
2018-07-08T10:58:47.591Z,41.73
2018-07-08T10:59:47.606Z,41.16
2018-07-08T11:00:47.619Z,40.80
2018-07-08T11:01:47.682Z,40.50
2018-07-08T11:02:47.649Z,40.70
2018-07-08T11:03:47.664Z,41.26
2018-07-08T11:04:47.675Z,42.36
2018-07-08T11:05:47.690Z,43.85
2018-07-08T11:06:47.704Z,42.70
2018-07-08T11:07:47.718Z,43.61
2018-07-08T11:08:47.731Z,44.83
2018-07-08T11:09:47.743Z,46.65
2018-07-08T11:10:47.784Z,49.80
2018-07-08T11:11:47.773Z,50.62
2018-07-08T11:12:47.785Z,50.02
2018-07-08T11:13:47.797Z,48.39
2018-07-08T11:14:47.812Z,46.21
2018-07-08T11:15:47.825Z,44.99
2018-07-08T11:16:47.837Z,45.09
2018-07-08T11:17:47.851Z,45.72
2018-07-08T11:18:47.862Z,46.84
2018-07-08T11:19:47.877Z,47.52
2018-07-08T11:20:47.910Z,48.85
2018-07-08T11:21:47.901Z,49.19
2018-07-08T11:22:47.913Z,50.24
2018-07-08T11:23:47.926Z,51.04
2018-07-08T11:24:47.937Z,50.29
2018-07-08T11:25:47.949Z,49.34
2018-07-08T11:26:47.962Z,48.95
2018-07-08T11:27:47.975Z,48.95
2018-07-08T11:28:47.987Z,48.27
2018-07-08T11:29:47.998Z,49.90
2018-07-08T11:30:48.010Z,49.58
2018-07-08T11:31:48.023Z,49.97
2018-07-08T11:32:48.035Z,49.68
2018-07-08T11:33:48.044Z,50.04
2018-07-08T11:34:48.054Z,49.97
2018-07-08T11:35:48.066Z,48.15
2018-07-08T11:36:48.077Z,47.77
2018-07-08T11:37:48.089Z,48.54
2018-07-08T11:38:48.098Z,49.90
2018-07-08T11:39:48.112Z,49.90
2018-07-08T11:40:48.122Z,50.29
2018-07-08T11:41:48.131Z,50.55
2018-07-08T11:42:48.183Z,50.94
2018-07-08T11:43:48.153Z,50.77
2018-07-08T11:44:48.166Z,50.77
2018-07-08T11:45:48.174Z,50.41
2018-07-08T11:46:48.185Z,50.87
2018-07-08T11:47:48.194Z,50.55
2018-07-08T11:48:48.205Z,50.04
2018-07-08T11:49:48.221Z,49.95
2018-07-08T11:50:48.226Z,50.02
2018-07-08T11:51:48.234Z,50.31
2018-07-08T11:52:48.245Z,50.40
2018-07-08T11:53:48.255Z,50.60
2018-07-08T11:54:48.269Z,50.43
2018-07-08T11:55:48.274Z,50.92
2018-07-08T11:56:48.282Z,51.01
2018-07-08T11:57:48.293Z,51.13
2018-07-08T11:58:48.303Z,50.45
2018-07-08T11:59:48.313Z,50.45
2018-07-08T12:00:48.321Z,51.01
2018-07-08T12:01:48.333Z,50.92
2018-07-08T12:02:48.348Z,50.16
2018-07-08T12:03:48.351Z,50.07
2018-07-08T12:04:48.359Z,48.81
2018-07-08T12:05:48.369Z,48.61
2018-07-08T12:06:48.408Z,48.22
2018-07-08T12:07:48.393Z,49.85
2018-07-08T12:08:48.431Z,50.14
2018-07-08T12:09:48.406Z,49.97
2018-07-08T12:10:48.415Z,49.77
2018-07-08T12:11:48.426Z,49.12
2018-07-08T12:12:48.433Z,49.80
2018-07-08T12:13:48.442Z,50.09
2018-07-08T12:14:48.454Z,49.82
2018-07-08T12:15:48.461Z,49.82
2018-07-08T12:16:48.468Z,50.02
2018-07-08T12:17:48.479Z,49.90
2018-07-08T12:18:48.490Z,50.29
2018-07-08T12:19:48.502Z,50.38
2018-07-08T12:20:48.506Z,50.31
2018-07-08T12:21:48.515Z,50.21
2018-07-08T12:22:48.525Z,50.09
2018-07-08T12:23:48.534Z,50.35
2018-07-08T12:24:48.544Z,50.48
2018-07-08T12:25:48.550Z,49.82
2018-07-08T12:26:48.560Z,48.57
2018-07-08T12:27:48.573Z,49.05
2018-07-08T12:28:48.578Z,48.27
2018-07-08T12:29:48.591Z,48.27
2018-07-08T12:30:48.595Z,49.02
2018-07-08T12:31:48.605Z,49.90
2018-07-08T12:32:48.613Z,50.09
2018-07-08T12:33:48.622Z,49.99
2018-07-08T12:34:48.632Z,50.84
2018-07-08T12:35:48.641Z,50.77
2018-07-08T12:36:48.662Z,50.57
2018-07-08T12:37:48.658Z,50.48
2018-07-08T12:38:48.668Z,50.87
2018-07-08T12:39:48.686Z,50.21
2018-07-08T12:40:48.684Z,50.09
2018-07-08T12:41:48.694Z,50.19
2018-07-08T12:42:48.703Z,50.84
2018-07-08T12:43:48.712Z,50.67
2018-07-08T12:44:48.842Z,50.12
2018-07-08T12:45:48.730Z,50.12
2018-07-08T12:46:48.739Z,49.99
2018-07-08T12:47:48.748Z,50.38
2018-07-08T12:48:48.756Z,50.29
2018-07-08T12:49:48.766Z,49.92
2018-07-08T12:50:48.773Z,49.82
2018-07-08T12:51:48.784Z,48.15
2018-07-08T12:52:48.791Z,47.09